createdAt,value
2018-05-02T00:00:37.947Z,5.90
2018-05-02T00:03:05.402Z,5.47
2018-05-02T00:05:32.866Z,5.20
2018-05-02T00:08:00.361Z,5.30
2018-05-02T00:10:28.633Z,6.07
2018-05-02T00:12:56.225Z,6.20
2018-05-02T00:15:23.690Z,5.33
2018-05-02T00:17:51.230Z,5.40
2018-05-02T00:20:18.698Z,5.53
2018-05-02T00:22:46.163Z,5.73
2018-05-02T00:25:13.641Z,6.00
2018-05-02T00:27:41.133Z,6.27
2018-05-02T00:30:09.364Z,5.90
2018-05-02T00:32:36.843Z,6.00
2018-05-02T00:35:05.813Z,5.50
2018-05-02T00:37:33.330Z,5.67
2018-05-02T00:40:01.559Z,6.00
2018-05-02T00:42:29.033Z,6.63
2018-05-02T00:44:56.485Z,5.93
2018-05-02T00:47:23.962Z,5.50
2018-05-02T00:49:52.186Z,6.10
2018-05-02T00:52:19.704Z,5.73
2018-05-02T00:54:47.931Z,6.70
2018-05-02T00:57:15.423Z,6.10
2018-05-02T00:59:42.896Z,6.00
2018-05-02T01:02:10.385Z,6.67
2018-05-02T01:04:37.845Z,6.20
2018-05-02T01:07:05.364Z,6.40
2018-05-02T01:09:33.593Z,6.30
2018-05-02T01:12:01.077Z,6.03
2018-05-02T01:14:28.532Z,6.10
2018-05-02T01:16:56.008Z,6.23
2018-05-02T01:19:24.232Z,6.23
2018-05-02T01:21:51.772Z,6.20
2018-05-02T01:24:19.332Z,6.47
2018-05-02T01:26:46.866Z,6.30
2018-05-02T01:29:15.127Z,6.33
2018-05-02T01:31:42.595Z,6.10
2018-05-02T01:34:10.848Z,6.47
2018-05-02T01:36:38.331Z,5.73
2018-05-02T01:39:06.592Z,6.17
2018-05-02T01:41:34.052Z,6.73
2018-05-02T01:44:02.308Z,6.43
2018-05-02T01:46:29.772Z,6.00
2018-05-02T01:51:56.686Z,5.87
2018-05-02T01:54:24.148Z,6.10
2018-05-02T01:56:51.653Z,6.37
2018-05-02T01:59:19.158Z,6.50
2018-05-02T02:01:46.631Z,6.20
2018-05-02T02:04:14.131Z,6.10
2018-05-02T02:06:41.596Z,6.30
2018-05-02T02:09:09.843Z,6.30
2018-05-02T02:11:37.322Z,6.40
2018-05-02T02:14:04.787Z,6.20
2018-05-02T02:16:33.012Z,6.37
2018-05-02T02:19:00.495Z,6.20
2018-05-02T02:21:27.971Z,6.67
2018-05-02T02:23:56.232Z,6.50
2018-05-02T02:26:23.771Z,5.53
2018-05-02T02:28:51.302Z,6.70
2018-05-02T02:31:18.779Z,6.03
2018-05-02T02:33:46.261Z,6.23
2018-05-02T02:36:13.782Z,6.40
2018-05-02T02:38:41.277Z,6.50
2018-05-02T02:41:08.741Z,6.63
2018-05-02T02:43:36.248Z,6.90
2018-05-02T02:46:03.729Z,6.57
2018-05-02T02:48:31.205Z,6.77
2018-05-02T02:50:58.781Z,6.23
2018-05-02T02:53:26.354Z,6.60
2018-05-02T02:55:54.609Z,6.27
2018-05-02T02:58:22.121Z,6.37
2018-05-02T03:00:49.579Z,7.23
2018-05-02T03:03:17.089Z,6.80
2018-05-02T03:05:44.540Z,6.57
2018-05-02T03:08:12.015Z,6.90
2018-05-02T03:10:40.320Z,6.50
2018-05-02T03:13:07.843Z,6.90
2018-05-02T03:15:36.119Z,7.43
2018-05-02T03:18:04.388Z,6.87
2018-05-02T03:20:31.900Z,7.27
2018-05-02T03:22:59.351Z,7.33
2018-05-02T03:25:26.840Z,7.60
2018-05-02T03:27:54.316Z,7.40
2018-05-02T03:30:21.783Z,6.87
2018-05-02T03:32:50.011Z,6.60
2018-05-02T03:35:17.481Z,6.53
2018-05-02T03:37:44.966Z,6.10
2018-05-02T03:40:12.428Z,6.37
2018-05-02T03:42:40.688Z,7.40
2018-05-02T03:45:08.198Z,6.07
2018-05-02T03:47:35.756Z,7.20
2018-05-02T03:50:03.238Z,6.50
2018-05-02T03:52:30.773Z,6.50
2018-05-02T03:54:58.332Z,7.07
2018-05-02T03:57:25.799Z,7.10
2018-05-02T04:00:05.174Z,7.53
2018-05-02T04:02:44.640Z,7.83
2018-05-02T04:05:24.712Z,7.47
2018-05-02T04:07:52.182Z,8.00
2018-05-02T04:10:19.662Z,7.60
2018-05-02T04:12:47.143Z,8.10
2018-05-02T04:15:14.611Z,8.10
2018-05-02T04:17:42.869Z,7.73
2018-05-02T04:20:10.333Z,7.47
2018-05-02T04:22:37.832Z,7.57
2018-05-02T04:25:05.317Z,7.70
2018-05-02T04:27:32.807Z,7.83
2018-05-02T04:30:00.312Z,7.93
2018-05-02T04:32:27.823Z,8.00
2018-05-02T04:34:55.279Z,8.17
2018-05-02T04:37:22.760Z,7.93
2018-05-02T04:39:51.032Z,8.13
2018-05-02T04:42:19.292Z,8.40
2018-05-02T04:44:46.757Z,8.27
2018-05-02T04:47:15.009Z,8.73
2018-05-02T04:49:42.586Z,8.57
2018-05-02T04:52:10.188Z,8.80
2018-05-02T04:54:37.747Z,8.70
2018-05-02T04:57:05.229Z,8.97
2018-05-02T04:59:32.948Z,8.73
2018-05-02T05:02:00.362Z,8.37
2018-05-02T05:04:27.841Z,8.20
2018-05-02T05:06:56.095Z,8.97
2018-05-02T05:09:23.617Z,9.60
2018-05-02T05:11:51.173Z,8.50
2018-05-02T05:14:18.679Z,8.67
2018-05-02T05:16:46.151Z,8.77
2018-05-02T05:19:14.396Z,8.60
2018-05-02T05:21:41.860Z,8.77
2018-05-02T05:24:09.476Z,8.57
2018-05-02T05:26:36.933Z,8.83
2018-05-02T05:29:04.493Z,8.80
2018-05-02T05:31:32.869Z,8.50
2018-05-02T05:34:00.352Z,8.37
2018-05-02T05:36:27.823Z,8.90
2018-05-02T05:38:55.299Z,9.07
2018-05-02T05:41:22.795Z,8.43
2018-05-02T05:43:50.279Z,8.80
2018-05-02T05:46:17.766Z,10.00
2018-05-02T05:48:45.250Z,9.40
2018-05-02T05:51:13.474Z,8.60
2018-05-02T05:53:40.956Z,9.00
2018-05-02T05:56:08.458Z,8.53
2018-05-02T05:58:35.939Z,8.70
2018-05-02T06:01:03.436Z,8.47
2018-05-02T06:03:30.917Z,9.07
2018-05-02T06:05:59.159Z,9.20
2018-05-02T06:08:26.631Z,9.23
2018-05-02T06:10:54.137Z,9.27
2018-05-02T06:13:21.643Z,9.53
2018-05-02T06:15:49.933Z,9.30
2018-05-02T06:18:18.181Z,9.07
2018-05-02T06:20:45.651Z,9.63
2018-05-02T06:23:13.201Z,8.30
2018-05-02T06:25:40.692Z,8.63
2018-05-02T06:28:08.940Z,8.10
2018-05-02T06:30:36.415Z,8.67
2018-05-02T06:33:04.667Z,8.70
2018-05-02T06:35:32.168Z,8.80
2018-05-02T06:37:59.710Z,9.47
2018-05-02T06:40:27.153Z,9.50
2018-05-02T06:42:54.642Z,8.80
2018-05-02T06:45:22.119Z,10.03
2018-05-02T06:47:49.580Z,9.77
2018-05-02T06:50:17.119Z,9.80
2018-05-02T06:52:44.561Z,10.43
2018-05-02T06:55:12.075Z,10.17
2018-05-02T06:57:39.535Z,9.17
2018-05-02T07:00:07.117Z,9.40
2018-05-02T07:02:34.571Z,9.27
2018-05-02T07:05:02.850Z,9.20
2018-05-02T07:07:30.354Z,8.50
2018-05-02T07:09:57.838Z,9.23
2018-05-02T07:12:25.313Z,9.47
2018-05-02T07:14:52.798Z,9.63
2018-05-02T07:17:21.031Z,8.57
2018-05-02T07:19:48.515Z,8.60
2018-05-02T07:22:16.828Z,9.67
2018-05-02T07:24:44.308Z,8.63
2018-05-02T07:27:11.765Z,8.57
2018-05-02T07:29:39.259Z,9.07
2018-05-02T07:32:06.726Z,9.20
2018-05-02T07:34:34.984Z,9.33
2018-05-02T07:37:02.474Z,9.20
2018-05-02T07:39:30.767Z,8.30
2018-05-02T07:41:58.291Z,8.50
2018-05-02T07:44:26.600Z,7.70
2018-05-02T07:46:54.079Z,7.93
2018-05-02T07:49:21.561Z,8.83
2018-05-02T07:51:49.074Z,8.80
2018-05-02T07:54:16.577Z,8.03
2018-05-02T07:56:44.079Z,8.60
2018-05-02T07:59:11.535Z,8.30
2018-05-02T08:01:38.995Z,8.43
2018-05-02T08:04:06.493Z,8.47
2018-05-02T08:06:33.968Z,8.97
2018-05-02T08:09:02.241Z,8.40
2018-05-02T08:11:29.705Z,7.97
2018-05-02T08:13:57.187Z,8.67
2018-05-02T08:16:25.420Z,8.23
2018-05-02T08:18:52.907Z,8.07
2018-05-02T08:21:21.136Z,8.10
2018-05-02T08:23:48.616Z,7.23
2018-05-02T08:26:16.076Z,7.93
2018-05-02T08:28:43.564Z,7.70
2018-05-02T08:31:11.865Z,7.40
2018-05-02T08:33:39.364Z,7.60
2018-05-02T08:36:06.882Z,7.23
2018-05-02T08:38:34.371Z,6.57
2018-05-02T08:41:01.829Z,7.20
2018-05-02T08:43:29.400Z,6.63
2018-05-02T08:45:56.856Z,6.33
2018-05-02T08:48:24.320Z,6.03
2018-05-02T08:50:51.848Z,6.27
2018-05-02T08:53:19.316Z,6.50
2018-05-02T08:55:46.787Z,6.00
2018-05-02T08:58:14.244Z,6.20
2018-05-02T09:00:41.836Z,6.30
2018-05-02T09:03:10.085Z,5.60
2018-05-02T09:05:39.204Z,6.20
2018-05-02T09:08:07.436Z,6.27
2018-05-02T09:10:34.929Z,5.83
2018-05-02T09:13:03.168Z,5.83
2018-05-02T09:15:30.666Z,5.47
2018-05-02T09:17:58.913Z,5.27
2018-05-02T09:20:26.498Z,4.77
2018-05-02T09:22:54.731Z,5.40
2018-05-02T09:25:22.212Z,5.47
2018-05-02T09:27:50.445Z,5.03
2018-05-02T09:30:17.948Z,5.47
2018-05-02T09:32:45.404Z,5.43
2018-05-02T09:35:13.656Z,5.63
2018-05-02T09:37:41.115Z,5.37
2018-05-02T09:40:08.609Z,6.10
2018-05-02T09:42:36.872Z,5.47
2018-05-02T09:45:04.371Z,5.60
2018-05-02T09:47:31.854Z,5.50
2018-05-02T09:49:59.336Z,5.43
2018-05-02T09:52:27.616Z,5.40
2018-05-02T09:54:55.105Z,5.80
2018-05-02T09:57:23.354Z,4.87
2018-05-02T09:59:51.616Z,5.50
2018-05-02T10:02:19.083Z,4.70
2018-05-02T10:04:46.652Z,5.03
2018-05-02T10:07:14.909Z,4.57
2018-05-02T10:09:42.435Z,4.57
2018-05-02T10:12:09.904Z,4.33
2018-05-02T10:14:37.394Z,4.57
2018-05-02T10:17:05.680Z,4.30
2018-05-02T10:19:33.939Z,5.27
2018-05-02T10:22:01.396Z,4.47
2018-05-02T10:24:28.968Z,4.43
2018-05-02T10:26:57.926Z,4.50
2018-05-02T10:29:25.410Z,3.97
2018-05-02T10:31:53.004Z,4.67
2018-05-02T10:34:20.495Z,4.13
2018-05-02T10:36:48.097Z,3.90
2018-05-02T10:39:16.344Z,3.73
2018-05-02T10:41:43.827Z,3.87
2018-05-02T10:44:11.379Z,3.93
2018-05-02T10:46:38.849Z,4.13
2018-05-02T10:49:07.095Z,3.90
2018-05-02T10:51:34.554Z,3.70
2018-05-02T10:54:02.056Z,3.93
2018-05-02T10:56:30.299Z,4.13
2018-05-02T10:58:57.777Z,3.70
2018-05-02T11:01:26.085Z,4.17
2018-05-02T11:03:53.564Z,3.90
2018-05-02T11:06:21.063Z,3.93
2018-05-02T11:08:49.298Z,3.60
2018-05-02T11:11:16.787Z,3.70
2018-05-02T11:13:45.036Z,4.10
2018-05-02T11:16:12.535Z,3.77
2018-05-02T11:18:40.808Z,4.03
2018-05-02T11:21:09.077Z,3.83
2018-05-02T11:23:37.304Z,3.60
2018-05-02T11:26:04.790Z,3.50
2018-05-02T11:28:32.271Z,3.70
2018-05-02T11:31:00.515Z,3.97
2018-05-02T11:33:28.011Z,3.73
2018-05-02T11:35:56.251Z,3.60
2018-05-02T11:38:23.714Z,4.10
2018-05-02T11:40:51.338Z,3.93
2018-05-02T11:43:18.813Z,3.40
2018-05-02T11:45:46.317Z,4.37
2018-05-02T11:48:14.595Z,3.70
2018-05-02T11:50:42.863Z,3.93
2018-05-02T11:53:11.110Z,4.60
2018-05-02T11:55:38.602Z,4.10
2018-05-02T11:58:06.955Z,4.80
2018-05-02T12:00:36.104Z,4.13
2018-05-02T12:03:03.581Z,4.03
2018-05-02T12:05:31.078Z,4.50
2018-05-02T12:07:58.547Z,3.80
2018-05-02T12:10:26.850Z,4.07
2018-05-02T12:12:55.776Z,4.53
2018-05-02T12:15:23.360Z,4.77
2018-05-02T12:17:52.334Z,3.90
2018-05-02T12:20:19.915Z,4.07
2018-05-02T12:22:47.395Z,4.20
2018-05-02T12:25:15.651Z,4.57
2018-05-02T12:27:43.188Z,4.23
2018-05-02T12:30:11.367Z,4.10
2018-05-02T12:32:39.620Z,3.80
2018-05-02T12:35:07.160Z,4.03
2018-05-02T12:37:34.623Z,4.00
2018-05-02T12:40:02.131Z,3.77
2018-05-02T12:42:30.355Z,3.50
2018-05-02T12:44:57.865Z,3.50
2018-05-02T12:47:25.374Z,3.30
2018-05-02T12:49:52.859Z,3.77
2018-05-02T12:52:20.331Z,3.70
2018-05-02T12:54:47.809Z,3.20
2018-05-02T12:57:16.057Z,3.50
2018-05-02T12:59:45.042Z,1.93
2018-05-02T13:02:12.521Z,2.37
2018-05-02T13:04:40.768Z,2.27
2018-05-02T13:07:08.300Z,2.30
2018-05-02T13:09:35.770Z,2.33
2018-05-02T13:12:03.272Z,2.40
2018-05-02T13:14:31.500Z,2.47
2018-05-02T13:16:59.005Z,2.90
2018-05-02T13:19:26.464Z,2.47
2018-05-02T13:21:54.719Z,2.33
2018-05-02T13:24:22.191Z,2.60
2018-05-02T13:26:50.450Z,2.70
2018-05-02T13:29:17.933Z,2.83
2018-05-02T13:31:46.185Z,2.60
2018-05-02T13:34:13.695Z,2.30
2018-05-02T13:36:41.176Z,2.20
2018-05-02T13:39:08.715Z,2.53
2018-05-02T13:41:36.213Z,2.60
2018-05-02T13:44:03.746Z,2.40
2018-05-02T13:46:31.238Z,2.53
2018-05-02T13:48:58.707Z,2.60
2018-05-02T13:51:26.206Z,2.60
2018-05-02T13:53:53.760Z,2.83
2018-05-02T13:56:21.244Z,3.90
2018-05-02T13:58:48.728Z,3.30
2018-05-02T14:01:16.204Z,3.20
2018-05-02T14:03:44.431Z,3.13
2018-05-02T14:06:11.936Z,3.30
2018-05-02T14:08:40.170Z,3.20
2018-05-02T14:11:07.643Z,2.93
2018-05-02T14:13:35.879Z,3.20
2018-05-02T14:16:03.439Z,3.03
2018-05-02T14:18:30.846Z,3.50
2018-05-02T14:20:58.411Z,3.50
2018-05-02T14:23:26.641Z,3.17
2018-05-02T14:25:54.170Z,3.37
2018-05-02T14:28:21.630Z,3.13
2018-05-02T14:30:49.112Z,3.33
2018-05-02T14:33:16.576Z,2.93
2018-05-02T14:35:44.067Z,3.37
2018-05-02T14:38:11.594Z,3.17
2018-05-02T14:40:39.799Z,3.37
2018-05-02T14:43:07.364Z,3.07
2018-05-02T14:45:35.608Z,3.50
2018-05-02T14:48:03.076Z,3.40
2018-05-02T14:50:30.555Z,3.07
2018-05-02T14:52:58.785Z,3.20
2018-05-02T14:55:26.274Z,3.27
2018-05-02T14:57:53.799Z,3.50
2018-05-02T15:00:21.273Z,3.33
2018-05-02T15:02:48.739Z,3.73
2018-05-02T15:05:16.232Z,3.60
2018-05-02T15:07:44.472Z,3.43
2018-05-02T15:10:11.970Z,3.23
2018-05-02T15:12:39.470Z,3.70
2018-05-02T15:15:06.943Z,3.90
2018-05-02T15:17:34.414Z,3.13
2018-05-02T15:20:01.919Z,2.87
2018-05-02T15:22:29.415Z,4.00
2018-05-02T15:24:56.888Z,3.30
2018-05-02T15:27:24.368Z,2.87
2018-05-02T15:29:51.838Z,3.20
2018-05-02T15:32:19.313Z,2.77
2018-05-02T15:34:46.770Z,3.10
2018-05-02T15:37:14.253Z,3.10
2018-05-02T15:39:41.789Z,2.67
2018-05-02T15:42:09.267Z,2.40
2018-05-02T15:44:36.764Z,2.30
2018-05-02T15:47:05.008Z,2.40
2018-05-02T15:49:32.480Z,3.00
2018-05-02T15:52:00.016Z,2.40
2018-05-02T15:54:27.454Z,2.20
2018-05-02T15:56:54.941Z,2.43
2018-05-02T15:59:22.412Z,2.00
2018-05-02T16:01:49.889Z,2.10
2018-05-02T16:04:18.119Z,1.93
2018-05-02T16:06:45.746Z,1.70
2018-05-02T16:09:13.225Z,2.33
2018-05-02T16:11:40.703Z,2.00
2018-05-02T16:14:09.756Z,2.17
2018-05-02T16:16:37.295Z,2.07
2018-05-02T16:19:04.831Z,2.10
2018-05-02T16:21:32.312Z,1.90
2018-05-02T16:24:00.570Z,2.10
2018-05-02T16:26:28.838Z,2.40
2018-05-02T16:28:56.313Z,2.80
2018-05-02T16:31:24.620Z,2.20
2018-05-02T16:33:52.104Z,2.03
2018-05-02T16:36:19.594Z,2.47
2018-05-02T16:38:47.059Z,2.50
2018-05-02T16:41:15.319Z,2.90
2018-05-02T16:43:42.780Z,2.23
2018-05-02T16:46:10.384Z,2.60
2018-05-02T16:48:37.856Z,2.20
2018-05-02T16:51:05.352Z,2.03
2018-05-02T16:53:32.809Z,1.87
2018-05-02T16:56:01.079Z,1.67
2018-05-02T16:58:28.541Z,2.20
2018-05-02T17:00:56.050Z,2.00
2018-05-02T17:03:23.560Z,2.80
2018-05-02T17:05:51.849Z,3.40
2018-05-02T17:08:20.080Z,4.00
2018-05-02T17:10:47.671Z,3.90
2018-05-02T17:13:15.144Z,3.90
2018-05-02T17:15:43.420Z,4.80
2018-05-02T17:18:10.912Z,4.97
2018-05-02T17:20:38.401Z,4.30
2018-05-02T17:23:05.880Z,3.57
2018-05-02T17:25:33.478Z,3.00
2018-05-02T17:28:00.967Z,2.90
2018-05-02T17:30:28.530Z,3.30
2018-05-02T17:32:56.008Z,3.10
2018-05-02T17:35:24.460Z,4.27
2018-05-02T17:37:51.939Z,3.23
2018-05-02T17:40:19.440Z,2.93
2018-05-02T17:42:46.931Z,3.20
2018-05-02T17:45:14.404Z,3.43
2018-05-02T17:47:41.884Z,2.80
2018-05-02T17:50:10.161Z,3.20
2018-05-02T17:52:38.413Z,2.60
2018-05-02T17:55:05.915Z,6.17
2018-05-02T17:57:33.430Z,3.90
2018-05-02T18:00:00.912Z,3.30
2018-05-02T18:02:29.164Z,3.67
2018-05-02T18:04:56.637Z,3.03
2018-05-02T18:07:24.144Z,2.87
2018-05-02T18:09:51.629Z,4.17
2018-05-02T18:12:19.112Z,3.93
2018-05-02T18:14:47.363Z,4.63
2018-05-02T18:17:14.853Z,3.13
2018-05-02T18:19:43.512Z,3.20
2018-05-02T18:22:11.106Z,2.87
2018-05-02T18:24:39.358Z,4.27
2018-05-02T18:27:06.861Z,5.20
2018-05-02T18:29:34.334Z,3.70
2018-05-02T18:32:01.831Z,5.37
2018-05-02T18:34:29.309Z,4.10
2018-05-02T18:36:57.596Z,4.30
2018-05-02T18:39:25.067Z,4.67
2018-05-02T18:41:52.573Z,5.50
2018-05-02T18:44:20.041Z,7.97
2018-05-02T18:46:47.588Z,7.23
2018-05-02T18:49:15.064Z,9.30
2018-05-02T18:51:43.323Z,6.47
2018-05-02T18:54:10.779Z,5.80
2018-05-02T18:56:38.289Z,3.40
2018-05-02T18:59:05.759Z,3.93
2018-05-02T19:01:33.506Z,3.43
2018-05-02T19:04:00.997Z,3.63
2018-05-02T19:06:28.499Z,3.10
2018-05-02T19:08:56.763Z,3.33
2018-05-02T19:11:25.039Z,3.70
2018-05-02T19:14:08.228Z,3.07
2018-05-02T19:16:35.739Z,3.63
2018-05-02T19:19:09.611Z,3.30
2018-05-02T19:21:37.130Z,3.53
2018-05-02T19:24:04.606Z,3.50
2018-05-02T19:26:37.079Z,3.23
2018-05-02T19:29:04.569Z,3.70
2018-05-02T19:31:37.897Z,3.57
2018-05-02T19:34:05.402Z,4.03
2018-05-02T19:36:32.981Z,4.10
2018-05-02T19:39:00.505Z,5.20
2018-05-02T19:41:33.614Z,3.70
2018-05-02T19:44:02.983Z,4.20
2018-05-02T19:46:30.575Z,4.40
2018-05-02T19:48:58.050Z,4.80
2018-05-02T19:51:32.109Z,4.47
2018-05-02T19:53:59.651Z,4.40
2018-05-02T19:56:27.124Z,4.10
2018-05-02T19:58:54.646Z,4.50
2018-05-02T20:01:28.521Z,3.60
2018-05-02T20:03:56.019Z,3.70
2018-05-02T20:06:24.393Z,3.37
2018-05-02T20:08:57.450Z,3.70
2018-05-02T20:11:30.656Z,3.03
2018-05-02T20:14:02.617Z,2.90
2018-05-02T20:16:31.630Z,3.87
2018-05-02T20:18:59.958Z,3.33
2018-05-02T20:21:27.408Z,3.20
2018-05-02T20:23:54.955Z,2.97
2018-05-02T20:26:22.492Z,3.67
2018-05-02T20:28:50.744Z,3.70
2018-05-02T20:31:18.222Z,3.53
2018-05-02T20:33:46.485Z,3.60
2018-05-02T20:36:14.711Z,3.63
2018-05-02T20:38:42.251Z,3.27
2018-05-02T20:41:09.765Z,3.23
2018-05-02T20:43:37.261Z,3.40
2018-05-02T20:46:04.748Z,3.00
2018-05-02T20:48:32.240Z,3.20
2018-05-02T20:50:59.733Z,3.40
2018-05-02T20:53:27.507Z,3.87
2018-05-02T20:55:54.975Z,3.43
2018-05-02T20:58:22.546Z,3.50
2018-05-02T21:00:50.005Z,3.43
2018-05-02T21:03:17.597Z,3.20
2018-05-02T21:05:45.080Z,3.30
2018-05-02T21:08:12.575Z,3.50
2018-05-02T21:10:40.041Z,3.67
2018-05-02T21:13:07.527Z,3.20
2018-05-02T21:15:36.049Z,3.30
2018-05-02T21:18:03.529Z,3.60
2018-05-02T21:20:30.989Z,3.53
2018-05-02T21:22:58.586Z,3.70
2018-05-02T21:25:26.833Z,3.40
2018-05-02T21:27:54.356Z,3.40
2018-05-02T21:30:21.857Z,3.37
2018-05-02T21:32:49.609Z,3.53
2018-05-02T21:35:17.072Z,3.90
2018-05-02T21:37:44.600Z,3.83
2018-05-02T21:40:12.106Z,4.57
2018-05-02T21:42:39.707Z,4.90
2018-05-02T21:45:07.372Z,3.20
2018-05-02T21:47:34.843Z,4.07
2018-05-02T21:50:02.471Z,3.20
2018-05-02T21:52:30.710Z,3.73
2018-05-02T21:54:58.220Z,3.30
2018-05-02T21:57:25.720Z,3.53
2018-05-02T21:59:53.284Z,3.53
2018-05-02T22:02:20.735Z,3.40
2018-05-02T22:04:48.252Z,3.70
2018-05-02T22:07:15.710Z,3.70
2018-05-02T22:09:44.192Z,3.80
2018-05-02T22:12:11.681Z,3.50
2018-05-02T22:14:39.163Z,3.47
2018-05-02T22:17:06.627Z,3.60
2018-05-02T22:19:34.111Z,3.90
2018-05-02T22:22:01.573Z,3.33
2018-05-02T22:24:29.067Z,3.40
2018-05-02T22:26:56.536Z,3.57
2018-05-02T22:29:24.055Z,3.53
2018-05-02T22:31:51.597Z,3.30
2018-05-02T22:34:19.081Z,3.20
2018-05-02T22:36:46.568Z,3.10
2018-05-02T22:39:14.324Z,3.33
2018-05-02T22:41:41.791Z,3.50
2018-05-02T22:44:09.268Z,3.43
2018-05-02T22:46:37.513Z,3.07
2018-05-02T22:49:05.403Z,3.47
2018-05-02T22:51:32.869Z,3.70
2018-05-02T22:54:01.141Z,3.23
2018-05-02T22:56:29.463Z,3.40
2018-05-02T22:58:56.944Z,3.33
2018-05-02T23:01:24.436Z,3.53
2018-05-02T23:03:52.691Z,3.27
2018-05-02T23:06:20.167Z,3.50
2018-05-02T23:08:47.658Z,3.47
2018-05-02T23:11:15.120Z,4.03
2018-05-02T23:13:42.596Z,3.30
2018-05-02T23:16:10.056Z,3.33
2018-05-02T23:18:37.593Z,3.37
2018-05-02T23:21:05.046Z,3.53
2018-05-02T23:23:32.611Z,3.30
2018-05-02T23:26:00.091Z,3.40
2018-05-02T23:28:27.580Z,3.57
2018-05-02T23:30:55.053Z,3.57
2018-05-02T23:33:23.317Z,3.60
2018-05-02T23:35:50.773Z,3.40
2018-05-02T23:38:18.290Z,3.20
2018-05-02T23:40:45.751Z,3.40
2018-05-02T23:43:13.235Z,3.20
2018-05-02T23:45:40.699Z,3.13
2018-05-02T23:48:08.171Z,3.40
2018-05-02T23:50:36.417Z,3.30
2018-05-02T23:53:03.872Z,3.20
2018-05-02T23:55:31.372Z,3.27
2018-05-02T23:57:59.635Z,3.53
